sensor_id;sensor_type;location;lat;lon;timestamp;pressure;altitude;pressure_sealevel;temperature;humidity
6387;BME280;3226;42.162;24.756;2023-07-24T00:00:52;99767.75;;;24.07;54.72
6387;BME280;3226;42.162;24.756;2023-07-24T00:03:20;99757.81;;;23.69;55.60
6387;BME280;3226;42.162;24.756;2023-07-24T00:05:50;99761.22;;;23.90;55.00
6387;BME280;3226;42.162;24.756;2023-07-24T00:08:18;99756.91;;;23.82;55.32
6387;BME280;3226;42.162;24.756;2023-07-24T00:10:46;99758.53;;;23.96;54.89
6387;BME280;3226;42.162;24.756;2023-07-24T00:13:14;99761.44;;;23.88;55.39
6387;BME280;3226;42.162;24.756;2023-07-24T00:15:43;99764.69;;;23.97;55.29
6387;BME280;3226;42.162;24.756;2023-07-24T00:18:11;99768.88;;;23.79;55.97
6387;BME280;3226;42.162;24.756;2023-07-24T00:20:39;99772.75;;;23.83;55.38
6387;BME280;3226;42.162;24.756;2023-07-24T00:23:08;99768.00;;;23.92;55.73
6387;BME280;3226;42.162;24.756;2023-07-24T00:25:37;99762.63;;;24.06;54.93
6387;BME280;3226;42.162;24.756;2023-07-24T00:28:05;99767.53;;;24.09;55.07
6387;BME280;3226;42.162;24.756;2023-07-24T00:30:33;99758.72;;;24.02;55.25
6387;BME280;3226;42.162;24.756;2023-07-24T00:33:01;99742.72;;;23.88;55.79
6387;BME280;3226;42.162;24.756;2023-07-24T00:35:29;99774.19;;;23.86;57.63
6387;BME280;3226;42.162;24.756;2023-07-24T00:37:57;99767.78;;;24.01;57.73
6387;BME280;3226;42.162;24.756;2023-07-24T00:40:26;99764.50;;;23.85;59.27
6387;BME280;3226;42.162;24.756;2023-07-24T00:42:54;99762.88;;;23.84;61.88
6387;BME280;3226;42.162;24.756;2023-07-24T00:45:22;99760.50;;;23.62;64.12
6387;BME280;3226;42.162;24.756;2023-07-24T00:47:51;99763.97;;;23.70;65.29
6387;BME280;3226;42.162;24.756;2023-07-24T00:50:19;99765.00;;;23.62;66.59
6387;BME280;3226;42.162;24.756;2023-07-24T00:52:47;99764.38;;;23.66;67.11
6387;BME280;3226;42.162;24.756;2023-07-24T00:55:15;99770.81;;;23.52;68.86
6387;BME280;3226;42.162;24.756;2023-07-24T00:57:45;99771.19;;;23.56;69.60
6387;BME280;3226;42.162;24.756;2023-07-24T01:00:14;99770.22;;;23.43;71.06
6387;BME280;3226;42.162;24.756;2023-07-24T01:02:43;99771.03;;;23.30;72.05
6387;BME280;3226;42.162;24.756;2023-07-24T01:05:12;99750.69;;;23.16;72.59
6387;BME280;3226;42.162;24.756;2023-07-24T01:07:41;99763.22;;;23.29;73.08
6387;BME280;3226;42.162;24.756;2023-07-24T01:10:09;99760.75;;;23.14;74.39
6387;BME280;3226;42.162;24.756;2023-07-24T01:12:44;99767.13;;;23.13;75.37
6387;BME280;3226;42.162;24.756;2023-07-24T01:15:20;99767.34;;;23.04;77.18
6387;BME280;3226;42.162;24.756;2023-07-24T01:17:58;99767.75;;;22.74;80.16
6387;BME280;3226;42.162;24.756;2023-07-24T01:20:29;99751.50;;;22.62;80.99
6387;BME280;3226;42.162;24.756;2023-07-24T01:23:14;99770.19;;;22.56;84.00
6387;BME280;3226;42.162;24.756;2023-07-24T01:25:55;99779.88;;;22.63;84.72
6387;BME280;3226;42.162;24.756;2023-07-24T01:28:24;99777.38;;;22.62;85.71
6387;BME280;3226;42.162;24.756;2023-07-24T01:30:52;99763.13;;;22.41;87.55
6387;BME280;3226;42.162;24.756;2023-07-24T01:33:21;99753.47;;;22.27;89.88
6387;BME280;3226;42.162;24.756;2023-07-24T01:35:53;99779.13;;;22.28;92.72
6387;BME280;3226;42.162;24.756;2023-07-24T01:38:24;99775.25;;;22.30;92.92
6387;BME280;3226;42.162;24.756;2023-07-24T01:40:54;99779.50;;;22.11;96.11
6387;BME280;3226;42.162;24.756;2023-07-24T01:43:24;99781.50;;;22.02;98.34
6387;BME280;3226;42.162;24.756;2023-07-24T01:45:53;99779.53;;;22.24;97.86
6387;BME280;3226;42.162;24.756;2023-07-24T01:48:22;99787.53;;;22.24;98.16
6387;BME280;3226;42.162;24.756;2023-07-24T01:50:50;99786.94;;;22.29;98.24
6387;BME280;3226;42.162;24.756;2023-07-24T01:53:18;99783.03;;;22.32;98.26
6387;BME280;3226;42.162;24.756;2023-07-24T01:55:46;99790.44;;;22.36;98.21
6387;BME280;3226;42.162;24.756;2023-07-24T01:58:15;99793.72;;;22.38;98.94
6387;BME280;3226;42.162;24.756;2023-07-24T02:00:43;99797.50;;;22.58;97.88
6387;BME280;3226;42.162;24.756;2023-07-24T02:03:11;99786.97;;;22.43;99.92
6387;BME280;3226;42.162;24.756;2023-07-24T02:05:39;99785.75;;;22.45;100.00
6387;BME280;3226;42.162;24.756;2023-07-24T02:08:07;99781.78;;;22.28;100.00
6387;BME280;3226;42.162;24.756;2023-07-24T02:10:37;99789.19;;;22.39;100.00
6387;BME280;3226;42.162;24.756;2023-07-24T02:13:05;99784.47;;;22.41;100.00
6387;BME280;3226;42.162;24.756;2023-07-24T02:15:36;99762.53;;;22.39;100.00
6387;BME280;3226;42.162;24.756;2023-07-24T02:18:04;99787.59;;;22.45;100.00
6387;BME280;3226;42.162;24.756;2023-07-24T02:20:32;99786.19;;;22.49;100.00
6387;BME280;3226;42.162;24.756;2023-07-24T02:23:00;99783.47;;;22.42;100.00
6387;BME280;3226;42.162;24.756;2023-07-24T02:25:28;99789.06;;;22.47;100.00
6387;BME280;3226;42.162;24.756;2023-07-24T02:27:56;99790.66;;;22.42;100.00
6387;BME280;3226;42.162;24.756;2023-07-24T02:30:24;99795.56;;;22.38;100.00
6387;BME280;3226;42.162;24.756;2023-07-24T02:32:53;99789.47;;;22.51;100.00
6387;BME280;3226;42.162;24.756;2023-07-24T02:35:23;99785.50;;;22.40;100.00
6387;BME280;3226;42.162;24.756;2023-07-24T02:37:51;99794.13;;;22.42;100.00
6387;BME280;3226;42.162;24.756;2023-07-24T02:40:19;99797.41;;;22.31;100.00
6387;BME280;3226;42.162;24.756;2023-07-24T02:42:47;99795.56;;;22.31;100.00
6387;BME280;3226;42.162;24.756;2023-07-24T02:45:15;99807.31;;;21.95;100.00
6387;BME280;3226;42.162;24.756;2023-07-24T02:47:44;99803.06;;;22.07;100.00
6387;BME280;3226;42.162;24.756;2023-07-24T02:50:13;99801.47;;;22.27;100.00
6387;BME280;3226;42.162;24.756;2023-07-24T02:52:41;99794.28;;;22.20;100.00
6387;BME280;3226;42.162;24.756;2023-07-24T02:55:09;99796.25;;;22.05;100.00
6387;BME280;3226;42.162;24.756;2023-07-24T02:57:37;99796.19;;;21.85;100.00
6387;BME280;3226;42.162;24.756;2023-07-24T03:00:06;99781.41;;;21.82;100.00
6387;BME280;3226;42.162;24.756;2023-07-24T03:02:34;99797.69;;;22.01;100.00
6387;BME280;3226;42.162;24.756;2023-07-24T03:05:03;99804.03;;;22.00;100.00
6387;BME280;3226;42.162;24.756;2023-07-24T03:07:33;99807.59;;;22.14;100.00
6387;BME280;3226;42.162;24.756;2023-07-24T03:10:01;99800.81;;;22.11;100.00
6387;BME280;3226;42.162;24.756;2023-07-24T03:12:29;99783.50;;;21.93;100.00
6387;BME280;3226;42.162;24.756;2023-07-24T03:14:57;99807.00;;;22.18;100.00
6387;BME280;3226;42.162;24.756;2023-07-24T03:17:25;99803.16;;;21.86;100.00
6387;BME280;3226;42.162;24.756;2023-07-24T03:19:54;99805.31;;;21.69;100.00
6387;BME280;3226;42.162;24.756;2023-07-24T03:22:22;99799.44;;;21.51;100.00
6387;BME280;3226;42.162;24.756;2023-07-24T03:24:51;99807.34;;;21.38;100.00
6387;BME280;3226;42.162;24.756;2023-07-24T03:27:19;99807.66;;;21.50;100.00
6387;BME280;3226;42.162;24.756;2023-07-24T03:29:47;99814.38;;;21.46;100.00
6387;BME280;3226;42.162;24.756;2023-07-24T03:32:15;99811.47;;;21.41;100.00
6387;BME280;3226;42.162;24.756;2023-07-24T03:34:43;99805.84;;;21.57;100.00
6387;BME280;3226;42.162;24.756;2023-07-24T03:37:11;99803.41;;;21.62;100.00
6387;BME280;3226;42.162;24.756;2023-07-24T03:39:39;99801.84;;;21.40;100.00
6387;BME280;3226;42.162;24.756;2023-07-24T03:42:09;99818.41;;;21.35;100.00
6387;BME280;3226;42.162;24.756;2023-07-24T03:44:39;99815.66;;;21.57;100.00
6387;BME280;3226;42.162;24.756;2023-07-24T03:47:07;99794.53;;;21.77;100.00
6387;BME280;3226;42.162;24.756;2023-07-24T03:49:35;99810.06;;;21.73;100.00
6387;BME280;3226;42.162;24.756;2023-07-24T03:52:04;99812.81;;;21.58;100.00
6387;BME280;3226;42.162;24.756;2023-07-24T03:54:32;99808.59;;;21.71;100.00
6387;BME280;3226;42.162;24.756;2023-07-24T03:57:00;99809.19;;;21.37;100.00
6387;BME280;3226;42.162;24.756;2023-07-24T03:59:30;99801.34;;;21.29;100.00
6387;BME280;3226;42.162;24.756;2023-07-24T04:01:58;99808.41;;;21.15;100.00
6387;BME280;3226;42.162;24.756;2023-07-24T04:04:26;99814.13;;;21.12;100.00
6387;BME280;3226;42.162;24.756;2023-07-24T04:06:54;99805.56;;;21.17;100.00
6387;BME280;3226;42.162;24.756;2023-07-24T04:09:22;99804.56;;;20.96;100.00
6387;BME280;3226;42.162;24.756;2023-07-24T04:11:50;99800.00;;;20.90;100.00
6387;BME280;3226;42.162;24.756;2023-07-24T04:14:18;99806.00;;;20.77;100.00
6387;BME280;3226;42.162;24.756;2023-07-24T04:16:48;99805.19;;;20.98;100.00
6387;BME280;3226;42.162;24.756;2023-07-24T04:19:16;99812.06;;;20.86;100.00
6387;BME280;3226;42.162;24.756;2023-07-24T04:21:44;99820.78;;;21.01;100.00
6387;BME280;3226;42.162;24.756;2023-07-24T04:24:12;99811.97;;;21.22;100.00
6387;BME280;3226;42.162;24.756;2023-07-24T04:26:40;99815.91;;;21.05;100.00
6387;BME280;3226;42.162;24.756;2023-07-24T04:29:09;99827.06;;;20.93;100.00
6387;BME280;3226;42.162;24.756;2023-07-24T04:31:37;99820.75;;;21.23;100.00
6387;BME280;3226;42.162;24.756;2023-07-24T04:34:06;99820.50;;;21.40;100.00
6387;BME280;3226;42.162;24.756;2023-07-24T04:36:35;99825.84;;;21.46;100.00
6387;BME280;3226;42.162;24.756;2023-07-24T04:39:03;99829.44;;;21.60;100.00
6387;BME280;3226;42.162;24.756;2023-07-24T04:41:31;99823.72;;;21.63;100.00
6387;BME280;3226;42.162;24.756;2023-07-24T04:43:59;99830.88;;;21.91;100.00
6387;BME280;3226;42.162;24.756;2023-07-24T04:46:27;99838.88;;;21.91;100.00
6387;BME280;3226;42.162;24.756;2023-07-24T04:48:56;99838.25;;;21.61;100.00
6387;BME280;3226;42.162;24.756;2023-07-24T04:51:25;99839.97;;;21.69;100.00
6387;BME280;3226;42.162;24.756;2023-07-24T04:53:53;99825.66;;;21.76;100.00
6387;BME280;3226;42.162;24.756;2023-07-24T04:56:22;99831.84;;;21.84;100.00
6387;BME280;3226;42.162;24.756;2023-07-24T04:58:49;99833.13;;;21.94;100.00
6387;BME280;3226;42.162;24.756;2023-07-24T05:01:18;99841.72;;;21.90;100.00
6387;BME280;3226;42.162;24.756;2023-07-24T05:03:46;99836.13;;;22.20;100.00
6387;BME280;3226;42.162;24.756;2023-07-24T05:06:14;99838.06;;;21.98;100.00
6387;BME280;3226;42.162;24.756;2023-07-24T05:08:43;99838.59;;;22.21;100.00
6387;BME280;3226;42.162;24.756;2023-07-24T05:11:11;99839.81;;;22.19;100.00
6387;BME280;3226;42.162;24.756;2023-07-24T05:13:39;99833.06;;;22.23;100.00
6387;BME280;3226;42.162;24.756;2023-07-24T05:16:07;99834.88;;;22.16;100.00
6387;BME280;3226;42.162;24.756;2023-07-24T05:18:35;99834.25;;;22.69;100.00
6387;BME280;3226;42.162;24.756;2023-07-24T05:21:06;99825.00;;;22.65;100.00
6387;BME280;3226;42.162;24.756;2023-07-24T05:23:35;99838.00;;;23.02;100.00
6387;BME280;3226;42.162;24.756;2023-07-24T05:26:04;99840.66;;;22.88;100.00
6387;BME280;3226;42.162;24.756;2023-07-24T05:28:32;99824.00;;;22.79;100.00
6387;BME280;3226;42.162;24.756;2023-07-24T05:31:02;99844.59;;;23.19;100.00
6387;BME280;3226;42.162;24.756;2023-07-24T05:33:31;99854.84;;;23.16;100.00
6387;BME280;3226;42.162;24.756;2023-07-24T05:35:59;99852.81;;;23.51;99.19
6387;BME280;3226;42.162;24.756;2023-07-24T05:38:28;99831.66;;;23.43;96.89
6387;BME280;3226;42.162;24.756;2023-07-24T05:40:56;99853.66;;;23.45;97.02
6387;BME280;3226;42.162;24.756;2023-07-24T05:43:26;99842.50;;;23.68;92.43
6387;BME280;3226;42.162;24.756;2023-07-24T05:45:56;99842.50;;;23.75;92.04
6387;BME280;3226;42.162;24.756;2023-07-24T05:48:24;99843.69;;;24.00;91.07
6387;BME280;3226;42.162;24.756;2023-07-24T05:50:53;99840.78;;;24.15;88.98
6387;BME280;3226;42.162;24.756;2023-07-24T05:53:21;99827.66;;;23.86;87.98
6387;BME280;3226;42.162;24.756;2023-07-24T05:55:56;99835.44;;;24.08;86.73
6387;BME280;3226;42.162;24.756;2023-07-24T05:58:26;99832.75;;;24.08;84.73
6387;BME280;3226;42.162;24.756;2023-07-24T06:00:54;99839.19;;;23.80;86.69
6387;BME280;3226;42.162;24.756;2023-07-24T06:03:23;99831.78;;;23.82;87.23
6387;BME280;3226;42.162;24.756;2023-07-24T06:05:52;99826.56;;;24.14;85.77
6387;BME280;3226;42.162;24.756;2023-07-24T06:08:21;99824.75;;;24.08;85.50
6387;BME280;3226;42.162;24.756;2023-07-24T06:10:49;99827.91;;;24.37;82.58
6387;BME280;3226;42.162;24.756;2023-07-24T06:13:18;99818.28;;;24.29;81.89
6387;BME280;3226;42.162;24.756;2023-07-24T06:15:49;99819.13;;;24.62;78.55
6387;BME280;3226;42.162;24.756;2023-07-24T06:18:17;99804.53;;;24.58;77.18
6387;BME280;3226;42.162;24.756;2023-07-24T06:20:45;99816.78;;;24.40;79.93
6387;BME280;3226;42.162;24.756;2023-07-24T06:23:13;99819.06;;;24.68;79.53
6387;BME280;3226;42.162;24.756;2023-07-24T06:25:42;99822.00;;;24.99;77.14
6387;BME280;3226;42.162;24.756;2023-07-24T06:28:10;99812.63;;;25.08;75.95
6387;BME280;3226;42.162;24.756;2023-07-24T06:30:38;99814.91;;;24.79;76.51
6387;BME280;3226;42.162;24.756;2023-07-24T06:33:08;99806.78;;;24.61;76.94
6387;BME280;3226;42.162;24.756;2023-07-24T06:35:36;99798.88;;;24.40;79.84
6387;BME280;3226;42.162;24.756;2023-07-24T06:38:04;99816.19;;;24.77;78.37
6387;BME280;3226;42.162;24.756;2023-07-24T06:40:35;99793.00;;;24.89;76.29
6387;BME280;3226;42.162;24.756;2023-07-24T06:43:03;99801.16;;;25.01;74.29
6387;BME280;3226;42.162;24.756;2023-07-24T06:45:31;99795.66;;;25.40;71.17
6387;BME280;3226;42.162;24.756;2023-07-24T06:47:59;99796.75;;;25.58;70.54
6387;BME280;3226;42.162;24.756;2023-07-24T06:50:28;99796.16;;;25.74;70.11
6387;BME280;3226;42.162;24.756;2023-07-24T06:52:57;99791.53;;;26.00;68.99
6387;BME280;3226;42.162;24.756;2023-07-24T06:55:25;99800.34;;;25.89;68.95
6387;BME280;3226;42.162;24.756;2023-07-24T06:57:53;99792.69;;;26.04;68.81
6387;BME280;3226;42.162;24.756;2023-07-24T07:00:21;99792.63;;;26.11;68.18
6387;BME280;3226;42.162;24.756;2023-07-24T07:02:49;99795.63;;;26.21;66.59
6387;BME280;3226;42.162;24.756;2023-07-24T07:05:17;99792.00;;;26.27;66.24
6387;BME280;3226;42.162;24.756;2023-07-24T07:07:46;99784.94;;;26.33;66.85
6387;BME280;3226;42.162;24.756;2023-07-24T07:10:15;99782.25;;;26.33;66.23
6387;BME280;3226;42.162;24.756;2023-07-24T07:12:43;99788.97;;;26.54;65.46
6387;BME280;3226;42.162;24.756;2023-07-24T07:15:11;99790.38;;;26.57;64.53
6387;BME280;3226;42.162;24.756;2023-07-24T07:17:39;99790.38;;;26.57;64.04
6387;BME280;3226;42.162;24.756;2023-07-24T07:20:07;99788.31;;;26.83;63.74
6387;BME280;3226;42.162;24.756;2023-07-24T07:22:35;99783.19;;;26.81;62.83
6387;BME280;3226;42.162;24.756;2023-07-24T07:25:05;99782.06;;;27.01;61.30
6387;BME280;3226;42.162;24.756;2023-07-24T07:27:33;99769.34;;;26.96;61.25
6387;BME280;3226;42.162;24.756;2023-07-24T07:30:01;99770.94;;;26.86;61.90
6387;BME280;3226;42.162;24.756;2023-07-24T07:32:29;99771.66;;;26.93;62.20
6387;BME280;3226;42.162;24.756;2023-07-24T07:34:58;99773.53;;;27.04;61.39
6387;BME280;3226;42.162;24.756;2023-07-24T07:37:26;99771.78;;;26.98;61.04
6387;BME280;3226;42.162;24.756;2023-07-24T07:39:54;99762.34;;;27.07;60.83
6387;BME280;3226;42.162;24.756;2023-07-24T07:42:24;99761.13;;;27.03;61.16
6387;BME280;3226;42.162;24.756;2023-07-24T07:44:52;99756.34;;;27.29;60.51
6387;BME280;3226;42.162;24.756;2023-07-24T07:47:20;99757.28;;;27.47;59.20
6387;BME280;3226;42.162;24.756;2023-07-24T07:49:48;99757.28;;;27.47;59.61
6387;BME280;3226;42.162;24.756;2023-07-24T07:52:16;99761.25;;;27.56;59.32
6387;BME280;3226;42.162;24.756;2023-07-24T07:54:46;99761.13;;;27.63;58.80
6387;BME280;3226;42.162;24.756;2023-07-24T07:57:15;99752.91;;;27.69;59.11
6387;BME280;3226;42.162;24.756;2023-07-24T07:59:44;99751.06;;;27.70;58.25
6387;BME280;3226;42.162;24.756;2023-07-24T08:02:12;99747.41;;;27.76;57.61
6387;BME280;3226;42.162;24.756;2023-07-24T08:04:40;99746.59;;;27.76;57.87
6387;BME280;3226;42.162;24.756;2023-07-24T08:07:08;99754.69;;;27.76;57.39
6387;BME280;3226;42.162;24.756;2023-07-24T08:09:37;99749.13;;;27.82;57.71
6387;BME280;3226;42.162;24.756;2023-07-24T08:12:06;99749.44;;;27.98;56.80
6387;BME280;3226;42.162;24.756;2023-07-24T08:14:34;99744.97;;;28.04;55.63
6387;BME280;3226;42.162;24.756;2023-07-24T08:17:04;99743.59;;;28.01;55.54
6387;BME280;3226;42.162;24.756;2023-07-24T08:19:32;99745.53;;;28.18;55.71
6387;BME280;3226;42.162;24.756;2023-07-24T08:22:00;99743.91;;;28.34;54.93
6387;BME280;3226;42.162;24.756;2023-07-24T08:24:28;99740.41;;;28.16;55.61
6387;BME280;3226;42.162;24.756;2023-07-24T08:26:56;99743.25;;;28.26;55.17
6387;BME280;3226;42.162;24.756;2023-07-24T08:29:24;99742.03;;;28.17;55.69
6387;BME280;3226;42.162;24.756;2023-07-24T08:31:52;99741.56;;;28.37;54.99
6387;BME280;3226;42.162;24.756;2023-07-24T08:34:22;99741.28;;;28.22;55.07
6387;BME280;3226;42.162;24.756;2023-07-24T08:36:50;99734.28;;;28.09;55.32
6387;BME280;3226;42.162;24.756;2023-07-24T08:39:18;99737.72;;;28.04;55.91
6387;BME280;3226;42.162;24.756;2023-07-24T08:41:46;99735.44;;;27.96;54.00
6387;BME280;3226;42.162;24.756;2023-07-24T08:44:14;99727.53;;;28.06;53.18
6387;BME280;3226;42.162;24.756;2023-07-24T08:46:44;99722.63;;;28.32;53.20
6387;BME280;3226;42.162;24.756;2023-07-24T08:49:14;99721.81;;;28.49;52.69
6387;BME280;3226;42.162;24.756;2023-07-24T08:51:44;99712.66;;;28.16;53.17
6387;BME280;3226;42.162;24.756;2023-07-24T08:54:12;99698.69;;;27.90;53.63
6387;BME280;3226;42.162;24.756;2023-07-24T08:56:41;99720.00;;;28.20;53.40
6387;BME280;3226;42.162;24.756;2023-07-24T08:59:13;99710.97;;;28.26;53.09
6387;BME280;3226;42.162;24.756;2023-07-24T09:01:41;99709.75;;;28.51;52.87
6387;BME280;3226;42.162;24.756;2023-07-24T09:04:09;99701.25;;;28.77;52.80
6387;BME280;3226;42.162;24.756;2023-07-24T09:06:38;99703.53;;;29.02;52.56
6387;BME280;3226;42.162;24.756;2023-07-24T09:09:13;99708.44;;;29.27;51.31
6387;BME280;3226;42.162;24.756;2023-07-24T09:11:49;99703.94;;;29.33;50.79
6387;BME280;3226;42.162;24.756;2023-07-24T09:14:22;99701.94;;;29.46;50.44
6387;BME280;3226;42.162;24.756;2023-07-24T09:16:50;99693.13;;;29.50;50.43
6387;BME280;3226;42.162;24.756;2023-07-24T09:19:29;99694.34;;;29.65;49.88
6387;BME280;3226;42.162;24.756;2023-07-24T09:22:07;99691.59;;;29.60;50.28
6387;BME280;3226;42.162;24.756;2023-07-24T09:24:37;99693.09;;;29.28;50.44
6387;BME280;3226;42.162;24.756;2023-07-24T09:27:06;99689.50;;;28.66;50.98
6387;BME280;3226;42.162;24.756;2023-07-24T09:29:35;99690.66;;;28.87;51.24
6387;BME280;3226;42.162;24.756;2023-07-24T09:32:04;99683.81;;;29.19;50.75
6387;BME280;3226;42.162;24.756;2023-07-24T09:34:32;99676.25;;;28.98;50.61
6387;BME280;3226;42.162;24.756;2023-07-24T09:37:02;99678.38;;;29.36;49.42
6387;BME280;3226;42.162;24.756;2023-07-24T09:39:30;99670.28;;;29.58;49.04
6387;BME280;3226;42.162;24.756;2023-07-24T09:42:04;99670.53;;;29.84;47.44
6387;BME280;3226;42.162;24.756;2023-07-24T09:44:32;99661.91;;;29.87;47.16
6387;BME280;3226;42.162;24.756;2023-07-24T09:47:01;99656.47;;;29.82;45.43
6387;BME280;3226;42.162;24.756;2023-07-24T09:49:50;99659.44;;;30.08;46.22
6387;BME280;3226;42.162;24.756;2023-07-24T09:52:19;99649.75;;;30.12;45.11
6387;BME280;3226;42.162;24.756;2023-07-24T09:54:54;99648.31;;;30.32;44.62
6387;BME280;3226;42.162;24.756;2023-07-24T09:57:25;99633.31;;;30.51;45.05
6387;BME280;3226;42.162;24.756;2023-07-24T09:59:56;99637.03;;;30.78;44.62
6387;BME280;3226;42.162;24.756;2023-07-24T10:02:24;99632.94;;;30.75;44.07
6387;BME280;3226;42.162;24.756;2023-07-24T10:04:54;99639.00;;;30.17;44.50
6387;BME280;3226;42.162;24.756;2023-07-24T10:07:23;99628.88;;;29.75;43.97
6387;BME280;3226;42.162;24.756;2023-07-24T10:09:51;99627.97;;;29.91;43.67
6387;BME280;3226;42.162;24.756;2023-07-24T10:12:20;99625.72;;;29.83;42.86
6387;BME280;3226;42.162;24.756;2023-07-24T10:14:50;99622.69;;;30.02;43.27
6387;BME280;3226;42.162;24.756;2023-07-24T10:17:34;99622.91;;;30.00;43.53
6387;BME280;3226;42.162;24.756;2023-07-24T10:20:04;99614.13;;;30.10;42.74
6387;BME280;3226;42.162;24.756;2023-07-24T10:22:33;99609.47;;;30.38;42.76
6387;BME280;3226;42.162;24.756;2023-07-24T10:25:03;99595.84;;;30.60;42.38
6387;BME280;3226;42.162;24.756;2023-07-24T10:27:31;99601.63;;;30.79;42.44
6387;BME280;3226;42.162;24.756;2023-07-24T10:30:01;99592.66;;;30.68;41.08
6387;BME280;3226;42.162;24.756;2023-07-24T10:32:47;99582.66;;;30.69;41.57
6387;BME280;3226;42.162;24.756;2023-07-24T10:35:21;99586.72;;;30.71;41.61
6387;BME280;3226;42.162;24.756;2023-07-24T10:37:59;99580.09;;;30.95;42.15
6387;BME280;3226;42.162;24.756;2023-07-24T10:40:27;99575.13;;;30.76;41.95
6387;BME280;3226;42.162;24.756;2023-07-24T10:43:01;99577.81;;;30.76;41.48
6387;BME280;3226;42.162;24.756;2023-07-24T10:45:40;99572.03;;;31.15;41.27
6387;BME280;3226;42.162;24.756;2023-07-24T10:48:09;99565.28;;;31.18;40.61
6387;BME280;3226;42.162;24.756;2023-07-24T10:50:39;99563.28;;;30.87;39.95
6387;BME280;3226;42.162;24.756;2023-07-24T10:53:08;99555.75;;;31.00;40.50
6387;BME280;3226;42.162;24.756;2023-07-24T10:55:37;99555.31;;;31.24;39.03
6387;BME280;3226;42.162;24.756;2023-07-24T10:58:06;99546.44;;;31.49;38.22
6387;BME280;3226;42.162;24.756;2023-07-24T11:00:34;99543.44;;;31.51;37.80
6387;BME280;3226;42.162;24.756;2023-07-24T11:03:03;99543.72;;;31.70;38.12
6387;BME280;3226;42.162;24.756;2023-07-24T11:05:32;99531.59;;;31.83;38.63
6387;BME280;3226;42.162;24.756;2023-07-24T11:08:00;99529.94;;;31.87;37.93
6387;BME280;3226;42.162;24.756;2023-07-24T11:10:28;99523.69;;;32.07;37.96
6387;BME280;3226;42.162;24.756;2023-07-24T11:12:57;99523.69;;;32.07;37.64
6387;BME280;3226;42.162;24.756;2023-07-24T11:15:25;99515.31;;;32.04;38.75
6387;BME280;3226;42.162;24.756;2023-07-24T11:17:54;99519.38;;;31.80;39.35
6387;BME280;3226;42.162;24.756;2023-07-24T11:20:24;99509.38;;;32.07;39.42
6387;BME280;3226;42.162;24.756;2023-07-24T11:22:52;99497.44;;;32.08;38.13
6387;BME280;3226;42.162;24.756;2023-07-24T11:25:20;99496.84;;;32.32;37.52
6387;BME280;3226;42.162;24.756;2023-07-24T11:27:48;99502.78;;;32.28;38.37
6387;BME280;3226;42.162;24.756;2023-07-24T11:30:20;99460.41;;;31.87;37.90
6387;BME280;3226;42.162;24.756;2023-07-24T11:32:48;99497.41;;;32.18;37.01
6387;BME280;3226;42.162;24.756;2023-07-24T11:35:17;99495.50;;;32.34;37.86
6387;BME280;3226;42.162;24.756;2023-07-24T11:37:49;99490.78;;;32.61;37.49
6387;BME280;3226;42.162;24.756;2023-07-24T11:40:17;99474.59;;;32.45;37.84
6387;BME280;3226;42.162;24.756;2023-07-24T11:42:48;99482.38;;;32.62;37.79
6387;BME280;3226;42.162;24.756;2023-07-24T11:45:16;99485.16;;;32.47;37.46
6387;BME280;3226;42.162;24.756;2023-07-24T11:47:45;99479.41;;;32.58;37.51
6387;BME280;3226;42.162;24.756;2023-07-24T11:50:14;99472.88;;;32.65;37.82
6387;BME280;3226;42.162;24.756;2023-07-24T11:52:44;99477.72;;;32.78;37.75
6387;BME280;3226;42.162;24.756;2023-07-24T11:55:16;99482.13;;;32.58;37.53
6387;BME280;3226;42.162;24.756;2023-07-24T11:57:55;99468.88;;;32.52;34.63
6387;BME280;3226;42.162;24.756;2023-07-24T12:00:24;99476.72;;;32.58;36.32
6387;BME280;3226;42.162;24.756;2023-07-24T12:02:53;99468.53;;;32.64;36.73
6387;BME280;3226;42.162;24.756;2023-07-24T12:05:21;99469.59;;;32.73;36.43
6387;BME280;3226;42.162;24.756;2023-07-24T12:07:49;99467.91;;;32.82;36.75
6387;BME280;3226;42.162;24.756;2023-07-24T12:10:26;99470.69;;;32.72;35.84
6387;BME280;3226;42.162;24.756;2023-07-24T12:12:58;99463.22;;;32.48;34.73
6387;BME280;3226;42.162;24.756;2023-07-24T12:15:27;99462.19;;;32.84;35.18
6387;BME280;3226;42.162;24.756;2023-07-24T12:17:55;99448.38;;;32.85;36.04
6387;BME280;3226;42.162;24.756;2023-07-24T12:20:23;99455.41;;;32.92;34.38
6387;BME280;3226;42.162;24.756;2023-07-24T12:22:52;99450.38;;;33.14;34.31
6387;BME280;3226;42.162;24.756;2023-07-24T12:25:20;99454.94;;;32.79;33.63
6387;BME280;3226;42.162;24.756;2023-07-24T12:27:50;99441.25;;;32.55;33.40
6387;BME280;3226;42.162;24.756;2023-07-24T12:30:18;99447.25;;;32.97;32.80
6387;BME280;3226;42.162;24.756;2023-07-24T12:32:46;99446.63;;;33.10;32.90
6387;BME280;3226;42.162;24.756;2023-07-24T12:35:16;99408.09;;;33.13;32.64
6387;BME280;3226;42.162;24.756;2023-07-24T12:37:44;99438.25;;;33.36;32.31
6387;BME280;3226;42.162;24.756;2023-07-24T12:40:12;99429.56;;;33.44;30.72
6387;BME280;3226;42.162;24.756;2023-07-24T12:42:41;99428.34;;;33.26;31.43
6387;BME280;3226;42.162;24.756;2023-07-24T12:45:10;99435.94;;;33.59;30.65
6387;BME280;3226;42.162;24.756;2023-07-24T12:47:38;99420.88;;;33.37;30.72
6387;BME280;3226;42.162;24.756;2023-07-24T12:50:07;99426.75;;;33.55;30.80
6387;BME280;3226;42.162;24.756;2023-07-24T12:52:35;99411.97;;;33.66;29.61
6387;BME280;3226;42.162;24.756;2023-07-24T12:55:05;99411.00;;;33.81;29.12
6387;BME280;3226;42.162;24.756;2023-07-24T12:57:33;99415.16;;;33.73;29.56
6387;BME280;3226;42.162;24.756;2023-07-24T13:00:02;99405.38;;;33.48;29.14
6387;BME280;3226;42.162;24.756;2023-07-24T13:02:33;99401.44;;;33.30;27.99
6387;BME280;3226;42.162;24.756;2023-07-24T13:05:01;99411.56;;;33.54;28.25
6387;BME280;3226;42.162;24.756;2023-07-24T13:07:29;99410.66;;;33.64;28.37
6387;BME280;3226;42.162;24.756;2023-07-24T13:09:57;99417.91;;;33.68;28.25
6387;BME280;3226;42.162;24.756;2023-07-24T13:12:26;99408.81;;;33.83;28.33
6387;BME280;3226;42.162;24.756;2023-07-24T13:14:54;99400.97;;;33.82;27.58
6387;BME280;3226;42.162;24.756;2023-07-24T13:17:22;99405.59;;;34.06;27.19